Time;durP1;ratioP1;P1;durP2;ratioP2;P2;SDS_P1;SDS_P2;PMS_P1;PMS_P2;Temp;Humidity;BMP_temperature;BMP_pressure;BME280_temperature;BME280_humidity;BME280_pressure;Samples;Min_cycle;Max_cycle;Signal;HPM_P1;HPM_P2
2020/12/15 00:01:23;;;;;;;12.88;8.00;;;10.20;93.00;;;;;;5059546;28;20041;-73
2020/12/15 00:03:51;;;;;;;12.27;8.32;;;10.20;92.80;;;;;;5041210;28;20032;-74
2020/12/15 00:06:17;;;;;;;12.88;8.98;;;10.20;92.80;;;;;;5044717;28;20036;-74
2020/12/15 00:08:44;;;;;;;12.90;8.98;;;10.30;92.80;;;;;;5045238;28;20053;-73
2020/12/15 00:11:15;;;;;;;16.35;9.15;;;10.30;92.70;;;;;;5041205;28;20144;-74
2020/12/15 00:13:43;;;;;;;14.70;8.80;;;10.20;92.70;;;;;;5042385;28;20041;-74
2020/12/15 00:16:09;;;;;;;12.65;8.57;;;10.20;92.60;;;;;;5038511;28;20476;-73
2020/12/15 00:18:35;;;;;;;14.32;9.25;;;10.30;92.60;;;;;;5042856;28;20047;-73
2020/12/15 00:21:00;;;;;;;12.85;8.50;;;10.30;92.60;;;;;;5049260;28;20502;-74
2020/12/15 00:23:26;;;;;;;15.25;9.35;;;10.30;92.60;;;;;;5061861;28;20056;-73
2020/12/15 00:25:52;;;;;;;12.75;9.10;;;10.20;92.60;;;;;;5066799;28;20060;-73
2020/12/15 00:28:18;;;;;;;15.80;10.20;;;10.30;92.60;;;;;;5068277;28;20074;-74
2020/12/15 00:30:44;;;;;;;15.75;10.48;;;10.30;92.60;;;;;;5058846;28;20410;-74
2020/12/15 00:33:10;;;;;;;13.40;9.75;;;10.30;92.60;;;;;;5063713;28;20043;-74
2020/12/15 00:35:35;;;;;;;15.40;10.07;;;10.30;92.50;;;;;;5063745;28;20111;-74
2020/12/15 00:38:01;;;;;;;17.98;11.02;;;10.30;92.50;;;;;;5063858;28;20486;-74
2020/12/15 00:40:27;;;;;;;14.18;10.65;;;10.30;92.50;;;;;;5058785;28;20049;-74
2020/12/15 00:42:52;;;;;;;15.38;10.82;;;10.30;92.50;;;;;;5041558;28;20044;-73
2020/12/15 00:45:18;;;;;;;14.40;10.70;;;10.30;92.60;;;;;;5044883;28;20033;-74
2020/12/15 00:47:43;;;;;;;15.73;10.82;;;10.30;92.60;;;;;;5037075;28;20139;-77
2020/12/15 00:50:12;;;;;;;14.90;11.32;;;10.30;92.60;;;;;;5042825;28;20032;-73
2020/12/15 00:52:38;;;;;;;15.32;11.30;;;10.30;92.60;;;;;;5043834;28;20033;-74
2020/12/15 00:55:04;;;;;;;17.20;11.82;;;10.30;92.60;;;;;;5040644;28;20063;-78
2020/12/15 00:57:29;;;;;;;15.88;11.60;;;10.20;92.60;;;;;;5046156;28;20086;-74
2020/12/15 00:59:55;;;;;;;17.75;13.10;;;10.20;92.70;;;;;;5065484;28;20025;-74
2020/12/15 01:02:21;;;;;;;18.50;13.32;;;10.20;92.70;;;;;;5072298;28;20041;-74
2020/12/15 01:04:46;;;;;;;17.65;12.80;;;10.20;92.80;;;;;;5072149;28;20033;-73
2020/12/15 01:07:12;;;;;;;16.52;12.43;;;10.20;92.70;;;;;;5065906;28;20040;-74
2020/12/15 01:09:38;;;;;;;19.88;12.55;;;10.20;92.70;;;;;;5073146;28;20037;-74
2020/12/15 01:12:13;;;;;;;17.20;12.93;;;10.20;92.70;;;;;;5067244;28;20040;-74
2020/12/15 01:14:39;;;;;;;16.42;13.15;;;10.20;92.60;;;;;;5070558;28;20028;-75
2020/12/15 01:17:10;;;;;;;18.00;13.02;;;10.20;92.70;;;;;;5065430;28;20043;-77
2020/12/15 01:19:36;;;;;;;17.90;14.00;;;10.10;92.70;;;;;;5052166;28;20044;-73
2020/12/15 01:22:03;;;;;;;18.92;14.45;;;10.10;92.80;;;;;;5068843;28;20025;-74
2020/12/15 01:24:28;;;;;;;16.33;12.60;;;10.10;92.90;;;;;;5069619;28;20021;-73
2020/12/15 01:26:54;;;;;;;16.73;12.90;;;10.10;92.80;;;;;;5065789;28;20035;-74
2020/12/15 01:29:19;;;;;;;16.55;13.07;;;10.10;92.80;;;;;;5070523;28;20108;-74
2020/12/15 01:31:45;;;;;;;16.80;13.32;;;10.10;92.90;;;;;;5067561;28;20143;-74
2020/12/15 01:34:11;;;;;;;15.60;12.73;;;10.10;93.00;;;;;;5055258;28;20480;-73
2020/12/15 01:36:37;;;;;;;17.75;14.25;;;10.10;93.00;;;;;;5068003;28;20037;-73
2020/12/15 01:39:03;;;;;;;18.60;14.25;;;10.10;93.00;;;;;;5058721;28;20040;-74
2020/12/15 01:41:29;;;;;;;20.20;14.50;;;10.10;93.00;;;;;;5066314;28;20119;-75
2020/12/15 01:44:01;;;;;;;18.55;14.77;;;10.10;93.00;;;;;;5072772;28;20147;-74
2020/12/15 01:46:27;;;;;;;18.40;15.02;;;10.10;93.10;;;;;;5061410;28;20428;-73
2020/12/15 01:48:54;;;;;;;18.27;14.85;;;10.10;93.10;;;;;;5071726;28;20639;-73
2020/12/15 01:51:20;;;;;;;19.77;14.57;;;10.10;93.10;;;;;;5061129;28;20510;-74
2020/12/15 01:53:47;;;;;;;19.02;14.90;;;10.20;93.10;;;;;;5056401;28;20037;-74
2020/12/15 01:56:13;;;;;;;24.98;15.45;;;10.20;93.10;;;;;;5046557;28;20068;-74
2020/12/15 01:58:48;;;;;;;18.05;14.88;;;10.20;93.10;;;;;;5043632;28;20127;-75
2020/12/15 02:01:13;;;;;;;;;;;10.20;93.10;;;;;;5038907;28;20129;-74
2020/12/15 02:03:39;;;;;;;17.27;14.85;;;10.20;93.10;;;;;;5044147;28;20385;-75
2020/12/15 02:06:05;;;;;;;18.92;14.48;;;10.20;93.10;;;;;;5050423;28;20032;-73
2020/12/15 02:08:30;;;;;;;20.75;15.50;;;10.30;93.00;;;;;;5053318;28;20044;-73
2020/12/15 02:10:56;;;;;;;19.63;15.10;;;10.30;93.00;;;;;;5050381;28;20039;-73
2020/12/15 02:13:24;;;;;;;17.95;14.27;;;10.30;92.90;;;;;;5037934;28;20044;-73
2020/12/15 02:15:50;;;;;;;19.77;14.45;;;10.30;92.90;;;;;;5040910;28;20040;-75
2020/12/15 02:18:16;;;;;;;21.13;14.82;;;10.30;92.90;;;;;;5036302;28;20392;-75
2020/12/15 02:20:41;;;;;;;16.52;13.45;;;10.40;92.80;;;;;;5043163;28;20113;-74
2020/12/15 02:23:07;;;;;;;20.70;14.52;;;10.40;92.80;;;;;;5036481;28;20112;-74
2020/12/15 02:25:33;;;;;;;19.17;14.65;;;10.40;92.70;;;;;;5043465;28;20063;-74
2020/12/15 02:27:58;;;;;;;18.63;13.85;;;10.40;92.70;;;;;;5048974;28;20041;-74
2020/12/15 02:30:24;;;;;;;18.58;14.75;;;10.40;92.60;;;;;;5042075;28;20036;-74
2020/12/15 02:32:50;;;;;;;20.70;15.73;;;10.50;92.60;;;;;;5042003;28;20452;-74
2020/12/15 02:35:15;;;;;;;17.65;15.10;;;10.40;92.70;;;;;;5061631;28;20032;-73
2020/12/15 02:37:41;;;;;;;17.83;14.40;;;10.40;92.90;;;;;;5053618;28;20029;-75
2020/12/15 02:40:07;;;;;;;19.38;15.30;;;10.40;93.00;;;;;;5059063;28;20854;-74
2020/12/15 02:42:33;;;;;;;17.33;15.40;;;10.40;93.10;;;;;;5060133;28;20116;-74
2020/12/15 02:44:59;;;;;;;23.55;16.75;;;10.40;93.10;;;;;;5070338;28;20372;-74
2020/12/15 02:47:25;;;;;;;18.65;16.00;;;10.40;93.20;;;;;;5068698;28;20509;-78
2020/12/15 02:49:51;;;;;;;19.15;15.80;;;10.40;93.20;;;;;;5058741;28;20507;-73
2020/12/15 02:52:19;;;;;;;19.92;15.85;;;10.30;93.20;;;;;;5067361;28;20063;-73
2020/12/15 02:54:49;;;;;;;21.65;17.13;;;10.40;93.30;;;;;;5069428;28;20485;-74
2020/12/15 02:57:16;;;;;;;19.83;16.90;;;10.40;93.30;;;;;;5066228;28;20036;-74
2020/12/15 02:59:43;;;;;;;20.52;16.67;;;10.40;93.10;;;;;;5064619;28;20032;-74
2020/12/15 03:02:09;;;;;;;20.52;17.65;;;10.40;93.10;;;;;;5061384;28;20480;-78
2020/12/15 03:04:34;;;;;;;21.25;17.35;;;10.40;93.00;;;;;;5069150;28;20036;-77
2020/12/15 03:07:00;;;;;;;22.80;17.88;;;10.40;93.00;;;;;;5048653;28;20468;-73
2020/12/15 03:09:26;;;;;;;21.45;18.00;;;10.40;92.90;;;;;;5067675;28;20037;-74
2020/12/15 03:11:56;;;;;;;18.88;16.88;;;10.50;93.00;;;;;;5063397;28;20068;-73
2020/12/15 03:14:23;;;;;;;21.30;17.00;;;10.50;92.90;;;;;;5061892;28;20497;-78
2020/12/15 03:16:49;;;;;;;21.55;16.70;;;10.40;92.90;;;;;;5064145;28;20124;-74
2020/12/15 03:19:15;;;;;;;19.25;16.30;;;10.50;92.90;;;;;;5052780;28;20128;-73
2020/12/15 03:21:40;;;;;;;20.05;16.58;;;10.40;92.80;;;;;;5069305;28;20025;-75
2020/12/15 03:24:06;;;;;;;20.73;17.13;;;10.50;92.90;;;;;;5062313;28;20056;-74
2020/12/15 03:26:32;;;;;;;19.33;16.88;;;10.50;92.90;;;;;;5057280;28;20394;-73
2020/12/15 03:28:57;;;;;;;21.17;17.88;;;10.50;92.80;;;;;;5053102;28;20537;-73
2020/12/15 03:31:23;;;;;;;21.00;17.25;;;10.40;92.80;;;;;;5053067;28;20124;-74
2020/12/15 03:33:49;;;;;;;21.13;16.45;;;10.50;92.70;;;;;;5059290;28;20059;-74
2020/12/15 03:36:16;;;;;;;22.52;16.75;;;10.40;92.70;;;;;;5062877;28;20083;-73
2020/12/15 03:38:42;;;;;;;18.77;16.05;;;10.50;92.80;;;;;;5037986;28;20037;-73
2020/12/15 03:41:09;;;;;;;19.75;15.90;;;10.50;92.80;;;;;;5050480;28;20370;-73
2020/12/15 03:43:35;;;;;;;20.42;15.73;;;10.50;92.80;;;;;;5054126;28;20036;-74
2020/12/15 03:46:00;;;;;;;19.15;15.18;;;10.50;92.60;;;;;;5045314;28;20043;-74
2020/12/15 03:48:26;;;;;;;18.38;15.30;;;10.50;92.60;;;;;;5062543;28;20033;-74
2020/12/15 03:50:52;;;;;;;18.55;14.88;;;10.50;92.70;;;;;;5062579;28;20388;-76
2020/12/15 03:53:18;;;;;;;20.55;15.60;;;10.40;92.70;;;;;;5065532;28;20055;-73
2020/12/15 03:55:47;;;;;;;18.02;15.38;;;10.40;92.70;;;;;;5070729;28;20043;-73
2020/12/15 03:58:14;;;;;;;19.95;15.38;;;10.40;92.70;;;;;;5064061;28;20045;-75
2020/12/15 04:00:40;;;;;;;21.17;15.57;;;10.40;92.70;;;;;;5055077;28;20429;-75
2020/12/15 04:03:06;;;;;;;17.55;15.13;;;10.40;92.70;;;;;;5061179;28;20021;-76
2020/12/15 04:05:31;;;;;;;19.25;15.32;;;10.40;92.80;;;;;;5062692;28;20503;-74
2020/12/15 04:07:57;;;;;;;17.67;15.15;;;10.30;92.80;;;;;;5061138;28;20025;-76
2020/12/15 04:10:22;;;;;;;21.30;16.48;;;10.40;92.70;;;;;;5067785;28;20056;-75
2020/12/15 04:12:48;;;;;;;20.27;15.70;;;10.40;92.80;;;;;;5065833;28;20368;-74
2020/12/15 04:15:14;;;;;;;18.10;14.77;;;10.40;92.70;;;;;;5058644;28;20179;-75
2020/12/15 04:17:39;;;;;;;20.38;14.73;;;10.40;92.80;;;;;;5063545;28;20110;-73
2020/12/15 04:20:06;;;;;;;19.38;15.52;;;10.30;92.90;;;;;;5046726;28;20036;-74
2020/12/15 04:22:32;;;;;;;19.67;15.10;;;10.30;92.80;;;;;;5058304;28;20116;-77
2020/12/15 04:24:59;;;;;;;17.77;14.18;;;10.30;92.80;;;;;;5062027;28;20390;-74
2020/12/15 04:27:26;;;;;;;18.17;14.57;;;10.30;92.80;;;;;;5065628;28;20036;-74
2020/12/15 04:29:51;;;;;;;20.25;14.95;;;10.30;92.80;;;;;;5066161;28;20120;-74
2020/12/15 04:32:17;;;;;;;18.92;15.00;;;10.30;92.80;;;;;;5063198;28;20115;-74
2020/12/15 04:34:43;;;;;;;19.70;14.57;;;10.30;92.80;;;;;;5064523;28;20482;-74
2020/12/15 04:37:08;;;;;;;19.60;14.32;;;10.30;92.80;;;;;;5063236;28;20116;-74
2020/12/15 04:39:34;;;;;;;19.80;14.63;;;10.30;92.90;;;;;;5065396;28;20476;-75
2020/12/15 04:42:00;;;;;;;20.33;15.55;;;10.30;92.80;;;;;;5059999;28;20033;-74
2020/12/15 04:44:26;;;;;;;16.80;14.35;;;10.30;92.80;;;;;;5059842;28;20037;-75
2020/12/15 04:47:02;;;;;;;19.50;14.65;;;10.30;92.80;;;;;;5044498;28;20033;-74
2020/12/15 04:49:31;;;;;;;17.80;14.70;;;10.30;92.90;;;;;;5051417;28;20109;-74
2020/12/15 04:52:04;;;;;;;16.77;13.43;;;10.30;92.80;;;;;;5052756;28;20068;-77
2020/12/15 04:54:35;;;;;;;21.45;14.27;;;10.30;92.80;;;;;;5060080;28;20040;-77
2020/12/15 04:57:02;;;;;;;17.30;13.93;;;10.30;92.80;;;;;;5068667;28;20058;-76
2020/12/15 04:59:30;;;;;;;19.02;14.27;;;10.30;92.70;;;;;;5066153;28;20037;-74
2020/12/15 05:02:04;;;;;;;17.67;13.32;;;10.20;92.70;;;;;;5052607;28;20025;-73
2020/12/15 05:04:38;;;;;;;18.98;14.38;;;10.20;92.70;;;;;;5057082;28;20047;-73
2020/12/15 05:07:05;;;;;;;18.95;14.07;;;10.20;92.60;;;;;;5054609;28;20662;-73
2020/12/15 05:09:32;;;;;;;18.73;13.82;;;10.20;92.60;;;;;;5053774;28;20033;-73
2020/12/15 05:11:58;;;;;;;15.77;13.48;;;10.20;92.70;;;;;;5060201;28;20512;-74
2020/12/15 05:14:24;;;;;;;18.45;14.45;;;10.20;92.60;;;;;;5064556;28;20120;-75
2020/12/15 05:16:51;;;;;;;16.95;13.43;;;10.20;92.60;;;;;;5061043;28;20028;-74
2020/12/15 05:19:17;;;;;;;15.88;13.95;;;10.20;92.60;;;;;;5058249;28;20051;-76
2020/12/15 05:21:56;;;;;;;19.80;14.20;;;10.20;92.70;;;;;;5054467;28;20024;-75
2020/12/15 05:24:29;;;;;;;19.25;14.02;;;10.10;92.70;;;;;;5055781;28;20041;-74
2020/12/15 05:26:56;;;;;;;18.95;14.52;;;10.10;92.70;;;;;;5055950;28;20043;-74
2020/12/15 05:29:23;;;;;;;17.67;13.85;;;10.10;92.70;;;;;;5055714;28;20282;-75
2020/12/15 05:31:50;;;;;;;16.20;13.23;;;10.10;92.70;;;;;;5058392;28;20028;-75
2020/12/15 05:34:23;;;;;;;16.92;13.77;;;10.10;92.70;;;;;;5059940;28;20475;-73
2020/12/15 05:36:51;;;;;;;17.60;13.90;;;10.10;92.70;;;;;;5053926;28;20549;-73
2020/12/15 05:39:17;;;;;;;19.83;13.85;;;10.10;92.70;;;;;;5055123;28;20052;-74
2020/12/15 05:41:43;;;;;;;19.50;13.98;;;10.10;92.70;;;;;;5059220;28;20064;-74
2020/12/15 05:44:10;;;;;;;17.67;13.73;;;10.10;92.70;;;;;;5065765;28;20528;-74
2020/12/15 05:46:45;;;;;;;19.13;15.00;;;10.10;92.80;;;;;;5060112;28;20035;-74
2020/12/15 05:49:11;;;;;;;19.75;15.85;;;10.10;92.80;;;;;;5059499;28;20047;-74
2020/12/15 05:51:44;;;;;;;18.70;13.85;;;10.10;92.80;;;;;;5065657;28;20044;-73
2020/12/15 05:54:12;;;;;;;21.15;14.75;;;10.20;92.80;;;;;;5065066;28;20071;-74
2020/12/15 05:56:38;;;;;;;17.38;14.18;;;10.10;92.80;;;;;;5060098;28;20119;-76
2020/12/15 05:59:20;;;;;;;17.77;14.13;;;10.10;92.80;;;;;;5064614;28;20132;-74
2020/12/15 06:01:50;;;;;;;19.83;13.98;;;10.20;92.80;;;;;;5059396;28;20056;-73
2020/12/15 06:04:16;;;;;;;18.30;14.88;;;10.10;92.80;;;;;;5061371;28;20086;-73
2020/12/15 06:06:43;;;;;;;19.05;14.50;;;10.10;92.80;;;;;;5067214;28;20037;-73
2020/12/15 06:09:10;;;;;;;18.80;14.98;;;10.20;92.90;;;;;;5059926;28;20151;-73
2020/12/15 06:11:39;;;;;;;17.08;13.48;;;10.20;92.90;;;;;;5067707;28;20119;-74
2020/12/15 06:14:05;;;;;;;17.38;15.23;;;10.20;92.80;;;;;;5059012;28;20035;-74
2020/12/15 06:16:31;;;;;;;16.42;13.25;;;10.20;92.80;;;;;;5057959;28;20501;-73
2020/12/15 06:18:57;;;;;;;19.48;15.23;;;10.20;92.70;;;;;;5062257;28;20056;-73
2020/12/15 06:21:23;;;;;;;20.42;15.65;;;10.20;92.70;;;;;;5063620;28;20071;-74
2020/12/15 06:24:01;;;;;;;20.15;15.60;;;10.20;92.70;;;;;;5067015;28;20028;-74
2020/12/15 06:26:28;;;;;;;19.00;14.63;;;10.20;92.60;;;;;;5066697;28;20123;-74
2020/12/15 06:29:06;;;;;;;19.23;14.90;;;10.20;92.60;;;;;;5059807;28;20040;-74
2020/12/15 06:31:33;;;;;;;17.67;14.60;;;10.20;92.50;;;;;;5062160;28;20040;-74
2020/12/15 06:34:00;;;;;;;19.35;14.38;;;10.20;92.60;;;;;;5063737;28;20081;-73
2020/12/15 06:36:28;;;;;;;18.88;14.48;;;10.20;92.60;;;;;;5067410;28;20029;-73
2020/12/15 06:38:54;;;;;;;17.58;12.55;;;10.20;92.60;;;;;;5067282;28;20041;-73
2020/12/15 06:41:24;;;;;;;22.90;14.93;;;10.20;92.60;;;;;;5059942;28;20115;-74
2020/12/15 06:43:51;;;;;;;19.13;15.05;;;10.10;92.50;;;;;;5066577;28;20024;-79
2020/12/15 06:46:27;;;;;;;21.52;15.63;;;10.10;92.60;;;;;;5062949;28;20052;-74
2020/12/15 06:48:54;;;;;;;19.00;15.20;;;10.20;92.60;;;;;;5064206;28;20044;-74
2020/12/15 06:51:30;;;;;;;19.77;14.68;;;10.20;92.60;;;;;;5063524;28;20041;-73
2020/12/15 06:54:04;;;;;;;19.75;14.57;;;10.20;92.70;;;;;;5059093;28;20095;-75
2020/12/15 06:56:30;;;;;;;19.90;15.57;;;10.20;92.60;;;;;;5059463;28;20495;-74
2020/12/15 06:59:02;;;;;;;21.35;15.13;;;10.20;92.60;;;;;;5052594;28;20036;-74
2020/12/15 07:01:28;;;;;;;20.15;15.07;;;10.20;92.60;;;;;;5065321;28;20686;-74
2020/12/15 07:03:58;;;;;;;19.50;14.77;;;10.20;92.50;;;;;;5066131;28;20037;-74
2020/12/15 07:06:25;;;;;;;20.38;15.57;;;10.10;92.50;;;;;;5063900;28;20052;-74
2020/12/15 07:09:06;;;;;;;18.17;14.75;;;10.10;92.50;;;;;;5061971;28;20408;-74
2020/12/15 07:11:32;;;;;;;18.00;15.40;;;10.20;92.60;;;;;;5063072;28;20062;-74
2020/12/15 07:14:00;;;;;;;19.38;15.13;;;10.20;92.60;;;;;;5064600;28;20508;-74
2020/12/15 07:16:27;;;;;;;17.42;14.57;;;10.10;92.60;;;;;;5067603;28;20036;-72
2020/12/15 07:18:53;;;;;;;21.85;15.75;;;10.20;92.70;;;;;;5066287;28;20032;-76
2020/12/15 07:21:19;;;;;;;21.08;16.10;;;10.20;92.60;;;;;;5057340;28;20056;-73
2020/12/15 07:23:46;;;;;;;21.85;16.10;;;10.10;92.60;;;;;;5058616;28;20035;-71
2020/12/15 07:26:19;;;;;;;19.05;15.38;;;10.10;92.60;;;;;;5066476;28;20043;-70
2020/12/15 07:28:47;;;;;;;18.98;14.88;;;10.20;92.80;;;;;;5063744;28;20037;-72
2020/12/15 07:31:13;;;;;;;19.55;15.50;;;10.20;92.70;;;;;;5063901;28;20388;-72
2020/12/15 07:33:41;;;;;;;17.35;13.98;;;10.20;92.60;;;;;;5063881;28;20020;-71
2020/12/15 07:36:17;;;;;;;18.95;14.27;;;10.10;92.60;;;;;;5063612;28;20037;-74
2020/12/15 07:38:44;;;;;;;20.00;14.95;;;10.20;92.50;;;;;;5064934;28;20037;-80
2020/12/15 07:41:15;;;;;;;21.00;15.13;;;10.20;92.50;;;;;;5062081;28;20032;-77
2020/12/15 07:43:51;;;;;;;19.30;14.40;;;10.20;92.40;;;;;;5054533;28;20224;-74
2020/12/15 07:46:17;;;;;;;17.05;13.45;;;10.20;92.50;;;;;;5062337;28;20044;-74
2020/12/15 07:48:44;;;;;;;18.55;13.18;;;10.10;92.50;;;;;;5066352;28;20357;-74
2020/12/15 07:51:10;;;;;;;22.00;16.33;;;10.10;92.30;;;;;;5063608;28;20509;-74
2020/12/15 07:53:36;;;;;;;19.73;14.55;;;10.10;92.40;;;;;;5060551;28;20037;-74
2020/12/15 07:56:05;;;;;;;21.65;15.15;;;10.20;92.50;;;;;;5066209;28;20021;-74
2020/12/15 07:58:32;;;;;;;20.98;14.82;;;10.20;92.40;;;;;;5065976;28;20036;-74
2020/12/15 08:00:58;;;;;;;17.77;14.95;;;10.10;92.40;;;;;;5063037;28;20029;-74
2020/12/15 08:03:23;;;;;;;19.83;15.15;;;10.10;92.50;;;;;;5063722;28;20040;-75
2020/12/15 08:05:49;;;;;;;18.52;13.70;;;10.20;92.50;;;;;;5065521;28;20039;-74
2020/12/15 08:08:16;;;;;;;20.25;15.98;;;10.20;92.50;;;;;;5063274;28;20110;-75
2020/12/15 08:10:42;;;;;;;20.25;15.68;;;10.20;92.50;;;;;;5062562;28;20036;-75
2020/12/15 08:13:07;;;;;;;17.88;14.60;;;10.20;92.50;;;;;;5043114;28;20036;-79
2020/12/15 08:15:38;;;;;;;18.60;15.38;;;10.20;92.40;;;;;;5045045;28;20033;-79
2020/12/15 08:18:07;;;;;;;18.30;14.18;;;10.10;92.40;;;;;;5060083;28;20500;-74
2020/12/15 08:20:36;;;;;;;19.50;15.48;;;10.20;92.50;;;;;;5058248;28;20025;-75
2020/12/15 08:23:07;;;;;;;19.73;15.40;;;10.20;92.50;;;;;;5060271;28;20063;-81
2020/12/15 08:25:34;;;;;;;20.92;15.25;;;10.20;92.50;;;;;;5058099;28;20044;-77
2020/12/15 08:28:08;;;;;;;19.27;15.55;;;10.20;92.50;;;;;;5053167;28;20487;-73
2020/12/15 08:30:34;;;;;;;20.10;14.97;;;10.20;92.50;;;;;;5062326;28;20036;-73
2020/12/15 08:33:00;;;;;;;19.80;15.05;;;10.20;92.50;;;;;;5065486;28;20536;-73
2020/12/15 08:35:26;;;;;;;19.05;14.90;;;10.20;92.40;;;;;;5060337;28;20029;-73
2020/12/15 08:38:02;;;;;;;19.33;15.07;;;10.20;92.40;;;;;;5060983;28;20044;-72
2020/12/15 08:40:28;;;;;;;19.75;15.30;;;10.20;92.40;;;;;;5063424;28;20021;-73
2020/12/15 08:42:57;;;;;;;18.92;14.52;;;10.20;92.40;;;;;;5065635;28;20127;-72
2020/12/15 08:45:26;;;;;;;19.55;15.15;;;10.20;92.40;;;;;;5064876;28;20632;-72
2020/12/15 08:47:53;;;;;;;17.73;13.73;;;10.20;92.50;;;;;;5062875;28;20036;-74
2020/12/15 08:50:19;;;;;;;22.80;14.25;;;10.20;92.30;;;;;;5062522;28;21926;-72
2020/12/15 08:52:46;;;;;;;16.23;13.65;;;10.30;92.40;;;;;;5055705;28;20467;-74
2020/12/15 08:55:11;;;;;;;19.27;14.43;;;10.30;92.40;;;;;;5063123;28;20573;-73
2020/12/15 08:57:37;;;;;;;26.75;22.20;;;10.30;92.30;;;;;;5065121;28;20348;-73
2020/12/15 09:00:14;;;;;;;18.58;14.13;;;10.30;92.30;;;;;;5064437;28;20028;-73
2020/12/15 09:02:40;;;;;;;19.05;13.10;;;10.30;92.10;;;;;;5057117;28;20044;-73
2020/12/15 09:05:07;;;;;;;17.17;12.82;;;10.30;92.00;;;;;;5053732;28;20030;-75
2020/12/15 09:07:33;;;;;;;19.23;13.50;;;10.30;92.10;;;;;;5064506;28;20394;-73
2020/12/15 09:10:14;;;;;;;18.13;13.35;;;10.30;91.80;;;;;;5061633;28;20029;-73
2020/12/15 09:12:47;;;;;;;16.67;13.18;;;10.40;91.90;;;;;;5058125;28;20024;-76
2020/12/15 09:15:13;;;;;;;19.35;13.85;;;10.30;91.90;;;;;;5062256;28;20040;-74
2020/12/15 09:17:40;;;;;;;19.60;14.57;;;10.30;92.00;;;;;;5064582;28;20541;-73
2020/12/15 09:20:08;;;;;;;17.80;13.43;;;10.30;92.00;;;;;;5062040;28;20036;-74
2020/12/15 09:22:36;;;;;;;17.98;12.88;;;10.30;92.10;;;;;;5065575;28;20064;-73
2020/12/15 09:25:05;;;;;;;22.02;15.35;;;10.30;92.10;;;;;;5065919;28;20086;-73
2020/12/15 09:27:33;;;;;;;20.30;13.55;;;10.30;92.10;;;;;;5065541;28;20025;-73
2020/12/15 09:29:59;;;;;;;22.20;14.80;;;10.30;92.10;;;;;;5062518;28;20529;-73
2020/12/15 09:32:31;;;;;;;19.50;14.23;;;10.30;92.20;;;;;;5068324;28;20024;-73
2020/12/15 09:34:57;;;;;;;21.77;14.88;;;10.20;92.20;;;;;;5062761;28;20029;-76
2020/12/15 09:37:23;;;;;;;21.42;14.15;;;10.30;92.10;;;;;;5067315;28;20059;-72
2020/12/15 09:39:48;;;;;;;20.60;14.15;;;10.30;92.10;;;;;;5065787;28;20016;-73
2020/12/15 09:42:15;;;;;;;19.10;13.60;;;10.30;92.10;;;;;;5072663;28;20111;-73
2020/12/15 09:44:41;;;;;;;16.73;13.77;;;10.40;92.20;;;;;;5044973;28;20045;-73
2020/12/15 09:47:06;;;;;;;19.10;13.13;;;10.30;92.20;;;;;;5039882;28;20060;-73
2020/12/15 09:49:34;;;;;;;25.23;12.88;;;10.40;92.20;;;;;;5048945;28;20532;-76
2020/12/15 09:51:59;;;;;;;22.00;13.25;;;10.40;92.20;;;;;;5042224;28;20502;-73
2020/12/15 09:54:25;;;;;;;18.42;13.80;;;10.40;92.20;;;;;;5046265;28;20598;-73
2020/12/15 09:56:51;;;;;;;20.17;13.68;;;10.50;92.10;;;;;;5049491;28;20025;-72
2020/12/15 09:59:16;;;;;;;16.30;11.73;;;10.50;92.10;;;;;;5047356;28;20510;-74
2020/12/15 10:01:43;;;;;;;19.48;13.88;;;10.50;91.80;;;;;;5045415;28;20479;-72
2020/12/15 10:04:09;;;;;;;17.75;12.77;;;10.60;91.80;;;;;;5046445;28;20407;-73
2020/12/15 10:06:35;;;;;;;18.50;13.82;;;10.50;91.80;;;;;;5045360;28;20045;-72
2020/12/15 10:09:01;;;;;;;22.58;14.75;;;10.50;91.90;;;;;;5045694;28;20059;-74
2020/12/15 10:11:27;;;;;;;16.50;12.60;;;10.50;91.90;;;;;;5042081;28;20041;-76
2020/12/15 10:13:52;;;;;;;20.58;16.95;;;10.50;92.00;;;;;;5037155;28;20064;-74
2020/12/15 10:16:19;;;;;;;21.80;17.08;;;10.50;92.00;;;;;;5042013;28;20491;-73
2020/12/15 10:18:44;;;;;;;19.85;14.75;;;10.50;92.00;;;;;;5042094;28;20507;-75
2020/12/15 10:21:10;;;;;;;21.13;15.68;;;10.60;91.90;;;;;;5040478;28;20038;-75
2020/12/15 10:23:37;;;;;;;25.83;17.48;;;10.60;91.80;;;;;;5057324;28;20033;-72
2020/12/15 10:26:06;;;;;;;21.38;15.60;;;10.50;91.80;;;;;;5045439;28;20025;-72
2020/12/15 10:28:32;;;;;;;17.88;12.77;;;10.60;91.80;;;;;;5038524;28;20033;-73
2020/12/15 10:30:57;;;;;;;22.77;14.90;;;10.60;91.90;;;;;;5039544;28;20064;-72
2020/12/15 10:33:23;;;;;;;17.77;12.60;;;10.60;91.90;;;;;;5049311;28;20052;-74
2020/12/15 10:35:49;;;;;;;24.02;14.88;;;10.70;91.80;;;;;;5045730;28;20025;-74
2020/12/15 10:38:14;;;;;;;18.13;12.90;;;10.80;91.70;;;;;;5037155;28;20025;-73
2020/12/15 10:40:41;;;;;;;17.88;13.40;;;10.90;91.60;;;;;;5059901;28;20034;-73
2020/12/15 10:43:07;;;;;;;15.50;12.30;;;10.90;91.30;;;;;;5040891;28;20029;-74
2020/12/15 10:45:33;;;;;;;19.02;13.32;;;11.00;91.40;;;;;;5045408;28;20038;-73
2020/12/15 10:47:58;;;;;;;18.05;13.80;;;11.00;91.00;;;;;;5049482;28;20376;-72
2020/12/15 10:50:24;;;;;;;23.13;13.82;;;11.10;90.90;;;;;;5033432;28;20122;-73
2020/12/15 10:52:49;;;;;;;18.55;13.52;;;11.10;90.70;;;;;;5037920;28;20552;-74
2020/12/15 10:55:15;;;;;;;17.77;11.98;;;11.10;90.40;;;;;;5042807;28;20033;-74
2020/12/15 10:57:41;;;;;;;19.30;13.48;;;11.10;90.40;;;;;;5047662;28;20043;-74
2020/12/15 11:00:07;;;;;;;21.33;13.98;;;11.10;90.40;;;;;;5042382;28;20032;-74
2020/12/15 11:02:33;;;;;;;21.52;13.82;;;11.20;90.50;;;;;;5044571;28;20436;-73
2020/12/15 11:04:59;;;;;;;19.83;13.00;;;11.30;90.30;;;;;;5047044;28;20033;-73
2020/12/15 11:07:25;;;;;;;20.65;12.82;;;11.50;90.10;;;;;;5045179;28;20029;-74
2020/12/15 11:09:51;;;;;;;19.17;14.50;;;11.50;89.80;;;;;;5045469;28;20315;-75
2020/12/15 11:12:17;;;;;;;18.55;12.55;;;11.60;89.60;;;;;;5040223;28;20061;-73
2020/12/15 11:14:42;;;;;;;17.15;12.68;;;11.60;89.00;;;;;;5043164;28;20028;-74
2020/12/15 11:17:08;;;;;;;17.98;12.68;;;11.60;89.10;;;;;;5044903;28;20037;-75
2020/12/15 11:19:34;;;;;;;17.63;11.27;;;11.60;89.20;;;;;;5032202;28;20033;-73
2020/12/15 11:22:00;;;;;;;17.20;12.00;;;11.60;89.10;;;;;;5042875;28;20044;-74
2020/12/15 11:24:26;;;;;;;16.83;11.40;;;11.60;88.90;;;;;;5048887;28;20032;-74
2020/12/15 11:26:52;;;;;;;15.27;11.60;;;11.60;89.10;;;;;;5061092;28;20043;-74
2020/12/15 11:29:17;;;;;;;18.77;12.43;;;11.50;89.10;;;;;;5055164;28;20057;-74
2020/12/15 11:31:43;;;;;;;16.10;11.07;;;11.60;89.00;;;;;;5042852;28;20043;-74
2020/12/15 11:34:08;;;;;;;18.45;12.32;;;11.60;89.20;;;;;;5045295;28;20488;-74
2020/12/15 11:36:34;;;;;;;20.20;12.30;;;11.60;89.20;;;;;;5037709;28;20065;-74
2020/12/15 11:39:00;;;;;;;15.48;11.15;;;11.60;89.00;;;;;;5035453;28;20056;-74
2020/12/15 11:41:27;;;;;;;16.13;11.52;;;11.70;88.80;;;;;;5037290;28;20033;-74
2020/12/15 11:43:53;;;;;;;16.80;11.52;;;11.70;89.00;;;;;;5035910;28;20033;-74
2020/12/15 11:46:18;;;;;;;18.35;12.15;;;11.80;88.80;;;;;;5041413;28;20032;-74
2020/12/15 11:48:44;;;;;;;14.75;11.80;;;12.00;88.60;;;;;;5043239;28;20045;-73
2020/12/15 11:51:09;;;;;;;18.00;11.32;;;12.10;87.70;;;;;;5040470;28;20032;-74
2020/12/15 11:53:35;;;;;;;14.15;11.18;;;12.10;87.50;;;;;;5062553;28;20068;-74
2020/12/15 11:56:01;;;;;;;17.60;11.52;;;12.30;87.30;;;;;;5060449;28;20506;-74
2020/12/15 11:58:26;;;;;;;13.25;9.32;;;12.30;86.70;;;;;;5061092;28;20036;-74
2020/12/15 12:00:52;;;;;;;18.27;10.63;;;12.40;86.30;;;;;;5061280;28;20131;-74
2020/12/15 12:03:17;;;;;;;15.82;10.23;;;12.40;85.90;;;;;;5062858;28;20124;-76
2020/12/15 12:05:43;;;;;;;19.17;10.07;;;12.40;86.00;;;;;;5061974;28;20364;-74
2020/12/15 12:08:09;;;;;;;11.05;6.95;;;12.40;86.00;;;;;;5064241;28;20082;-74
2020/12/15 12:10:34;;;;;;;14.18;7.38;;;12.30;85.20;;;;;;5061485;28;20041;-76
2020/12/15 12:13:00;;;;;;;17.02;8.10;;;12.40;84.00;;;;;;5051213;28;20132;-75
2020/12/15 12:15:27;;;;;;;16.02;8.30;;;12.30;83.70;;;;;;5047560;28;20039;-78
2020/12/15 12:17:53;;;;;;;14.52;8.90;;;12.20;83.90;;;;;;5059103;28;20468;-76
2020/12/15 12:20:19;;;;;;;15.07;8.40;;;12.10;84.40;;;;;;5058376;28;20036;-73
2020/12/15 12:22:44;;;;;;;14.13;8.02;;;12.20;84.00;;;;;;5058075;28;20485;-73
2020/12/15 12:25:10;;;;;;;13.25;8.27;;;12.10;83.60;;;;;;5042199;28;20502;-74
2020/12/15 12:27:37;;;;;;;14.52;8.15;;;12.20;83.30;;;;;;5034228;28;20045;-74